sensor_id;sensor_type;location;lat;lon;timestamp;P1;P2;P0
36453;PMS5003;22478;51.740;-1.314;2023-06-14T00:00:44;15;13;
36453;PMS5003;22478;51.740;-1.314;2023-06-14T00:03:11;17;15;
36453;PMS5003;22478;51.740;-1.314;2023-06-14T00:05:38;14;13;
36453;PMS5003;22478;51.740;-1.314;2023-06-14T00:08:05;12;12;
36453;PMS5003;22478;51.740;-1.314;2023-06-14T00:10:33;11;10;
36453;PMS5003;22478;51.740;-1.314;2023-06-14T00:13:00;14;11;
36453;PMS5003;22478;51.740;-1.314;2023-06-14T00:15:28;9;9;
36453;PMS5003;22478;51.740;-1.314;2023-06-14T00:17:55;16;11;
36453;PMS5003;22478;51.740;-1.314;2023-06-14T00:20:22;12;11;
36453;PMS5003;22478;51.740;-1.314;2023-06-14T00:22:49;12;11;
36453;PMS5003;22478;51.740;-1.314;2023-06-14T00:25:16;12;11;
36453;PMS5003;22478;51.740;-1.314;2023-06-14T00:27:44;16;12;
36453;PMS5003;22478;51.740;-1.314;2023-06-14T00:30:11;12;11;
36453;PMS5003;22478;51.740;-1.314;2023-06-14T00:32:39;12;11;
36453;PMS5003;22478;51.740;-1.314;2023-06-14T00:35:06;11;10;
36453;PMS5003;22478;51.740;-1.314;2023-06-14T00:37:33;14;11;
36453;PMS5003;22478;51.740;-1.314;2023-06-14T00:40:01;12;10;
36453;PMS5003;22478;51.740;-1.314;2023-06-14T00:42:28;11;11;
36453;PMS5003;22478;51.740;-1.314;2023-06-14T00:44:56;15;11;
36453;PMS5003;22478;51.740;-1.314;2023-06-14T00:47:24;9;9;
36453;PMS5003;22478;51.740;-1.314;2023-06-14T00:49:51;13;11;
36453;PMS5003;22478;51.740;-1.314;2023-06-14T00:52:20;8;8;
36453;PMS5003;22478;51.740;-1.314;2023-06-14T00:54:48;9;9;
36453;PMS5003;22478;51.740;-1.314;2023-06-14T00:57:16;12;10;
36453;PMS5003;22478;51.740;-1.314;2023-06-14T00:59:44;9;8;
36453;PMS5003;22478;51.740;-1.314;2023-06-14T01:02:14;9;8;
36453;PMS5003;22478;51.740;-1.314;2023-06-14T01:04:43;15;11;
36453;PMS5003;22478;51.740;-1.314;2023-06-14T01:07:14;10;9;
36453;PMS5003;22478;51.740;-1.314;2023-06-14T01:09:48;16;10;
36453;PMS5003;22478;51.740;-1.314;2023-06-14T01:12:27;12;10;
36453;PMS5003;22478;51.740;-1.314;2023-06-14T01:15:01;8;8;
36453;PMS5003;22478;51.740;-1.314;2023-06-14T01:17:29;11;8;
36453;PMS5003;22478;51.740;-1.314;2023-06-14T01:19:58;7;6;
36453;PMS5003;22478;51.740;-1.314;2023-06-14T01:22:25;8;8;
36453;PMS5003;22478;51.740;-1.314;2023-06-14T01:24:53;9;9;
36453;PMS5003;22478;51.740;-1.314;2023-06-14T01:27:20;10;10;
36453;PMS5003;22478;51.740;-1.314;2023-06-14T01:29:49;9;9;
36453;PMS5003;22478;51.740;-1.314;2023-06-14T01:32:17;12;12;
36453;PMS5003;22478;51.740;-1.314;2023-06-14T01:34:44;22;22;
36453;PMS5003;22478;51.740;-1.314;2023-06-14T01:37:12;17;13;
36453;PMS5003;22478;51.740;-1.314;2023-06-14T01:39:40;12;12;
36453;PMS5003;22478;51.740;-1.314;2023-06-14T01:42:10;14;13;
36453;PMS5003;22478;51.740;-1.314;2023-06-14T01:44:39;14;13;
36453;PMS5003;22478;51.740;-1.314;2023-06-14T01:47:08;24;22;
36453;PMS5003;22478;51.740;-1.314;2023-06-14T01:49:38;22;17;
36453;PMS5003;22478;51.740;-1.314;2023-06-14T01:52:06;18;16;
36453;PMS5003;22478;51.740;-1.314;2023-06-14T01:54:33;20;17;
36453;PMS5003;22478;51.740;-1.314;2023-06-14T01:57:00;40;35;
36453;PMS5003;22478;51.740;-1.314;2023-06-14T01:59:28;16;16;
36453;PMS5003;22478;51.740;-1.314;2023-06-14T02:01:55;40;38;
36453;PMS5003;22478;51.740;-1.314;2023-06-14T02:04:22;57;55;
36453;PMS5003;22478;51.740;-1.314;2023-06-14T02:06:49;18;16;
36453;PMS5003;22478;51.740;-1.314;2023-06-14T02:09:16;52;52;
36453;PMS5003;22478;51.740;-1.314;2023-06-14T02:11:43;52;52;
36453;PMS5003;22478;51.740;-1.314;2023-06-14T02:14:10;55;51;
36453;PMS5003;22478;51.740;-1.314;2023-06-14T02:16:38;56;55;
36453;PMS5003;22478;51.740;-1.314;2023-06-14T02:19:05;74;72;
36453;PMS5003;22478;51.740;-1.314;2023-06-14T02:21:32;68;67;
36453;PMS5003;22478;51.740;-1.314;2023-06-14T02:23:59;58;55;
36453;PMS5003;22478;51.740;-1.314;2023-06-14T02:26:27;54;52;
36453;PMS5003;22478;51.740;-1.314;2023-06-14T02:28:54;70;70;
36453;PMS5003;22478;51.740;-1.314;2023-06-14T02:31:22;49;48;
36453;PMS5003;22478;51.740;-1.314;2023-06-14T02:33:49;56;54;
36453;PMS5003;22478;51.740;-1.314;2023-06-14T02:36:17;66;63;
36453;PMS5003;22478;51.740;-1.314;2023-06-14T02:38:44;55;54;
36453;PMS5003;22478;51.740;-1.314;2023-06-14T02:41:12;62;60;
36453;PMS5003;22478;51.740;-1.314;2023-06-14T02:43:39;50;50;
36453;PMS5003;22478;51.740;-1.314;2023-06-14T02:46:06;69;69;
36453;PMS5003;22478;51.740;-1.314;2023-06-14T02:48:34;50;49;
36453;PMS5003;22478;51.740;-1.314;2023-06-14T02:51:01;50;44;
36453;PMS5003;22478;51.740;-1.314;2023-06-14T02:53:29;60;59;
36453;PMS5003;22478;51.740;-1.314;2023-06-14T02:55:57;56;55;
36453;PMS5003;22478;51.740;-1.314;2023-06-14T02:58:24;57;57;
36453;PMS5003;22478;51.740;-1.314;2023-06-14T03:00:51;49;48;
36453;PMS5003;22478;51.740;-1.314;2023-06-14T03:03:18;67;66;
36453;PMS5003;22478;51.740;-1.314;2023-06-14T03:05:46;77;74;
36453;PMS5003;22478;51.740;-1.314;2023-06-14T03:08:14;56;56;
36453;PMS5003;22478;51.740;-1.314;2023-06-14T03:10:41;54;52;
36453;PMS5003;22478;51.740;-1.314;2023-06-14T03:13:09;31;31;
36453;PMS5003;22478;51.740;-1.314;2023-06-14T03:15:36;11;10;
36453;PMS5003;22478;51.740;-1.314;2023-06-14T03:18:03;18;16;
36453;PMS5003;22478;51.740;-1.314;2023-06-14T03:20:31;14;13;
36453;PMS5003;22478;51.740;-1.314;2023-06-14T03:22:59;12;11;
36453;PMS5003;22478;51.740;-1.314;2023-06-14T03:25:27;51;46;
36453;PMS5003;22478;51.740;-1.314;2023-06-14T03:27:54;60;60;
36453;PMS5003;22478;51.740;-1.314;2023-06-14T03:30:21;42;39;
36453;PMS5003;22478;51.740;-1.314;2023-06-14T03:32:48;51;48;
36453;PMS5003;22478;51.740;-1.314;2023-06-14T03:35:15;39;39;
36453;PMS5003;22478;51.740;-1.314;2023-06-14T03:37:43;59;55;
36453;PMS5003;22478;51.740;-1.314;2023-06-14T03:40:11;69;69;
36453;PMS5003;22478;51.740;-1.314;2023-06-14T03:42:39;75;75;
36453;PMS5003;22478;51.740;-1.314;2023-06-14T03:45:07;91;88;
36453;PMS5003;22478;51.740;-1.314;2023-06-14T03:47:34;89;83;
36453;PMS5003;22478;51.740;-1.314;2023-06-14T03:50:01;89;87;
36453;PMS5003;22478;51.740;-1.314;2023-06-14T03:52:29;88;86;
36453;PMS5003;22478;51.740;-1.314;2023-06-14T03:54:56;84;84;
36453;PMS5003;22478;51.740;-1.314;2023-06-14T03:57:24;85;85;
36453;PMS5003;22478;51.740;-1.314;2023-06-14T03:59:51;93;90;
36453;PMS5003;22478;51.740;-1.314;2023-06-14T04:02:18;77;77;
36453;PMS5003;22478;51.740;-1.314;2023-06-14T04:04:45;86;84;
36453;PMS5003;22478;51.740;-1.314;2023-06-14T04:07:13;85;81;
36453;PMS5003;22478;51.740;-1.314;2023-06-14T04:09:40;81;81;
36453;PMS5003;22478;51.740;-1.314;2023-06-14T04:12:08;90;87;
36453;PMS5003;22478;51.740;-1.314;2023-06-14T04:14:36;86;86;
36453;PMS5003;22478;51.740;-1.314;2023-06-14T04:17:04;84;82;
36453;PMS5003;22478;51.740;-1.314;2023-06-14T04:19:32;88;86;
36453;PMS5003;22478;51.740;-1.314;2023-06-14T04:21:59;88;87;
36453;PMS5003;22478;51.740;-1.314;2023-06-14T04:24:27;90;89;
36453;PMS5003;22478;51.740;-1.314;2023-06-14T04:26:54;89;87;
36453;PMS5003;22478;51.740;-1.314;2023-06-14T04:29:21;83;81;
36453;PMS5003;22478;51.740;-1.314;2023-06-14T04:31:49;89;89;
36453;PMS5003;22478;51.740;-1.314;2023-06-14T04:34:16;93;89;
36453;PMS5003;22478;51.740;-1.314;2023-06-14T04:36:44;87;87;
36453;PMS5003;22478;51.740;-1.314;2023-06-14T04:39:11;80;80;
36453;PMS5003;22478;51.740;-1.314;2023-06-14T04:41:39;89;88;
36453;PMS5003;22478;51.740;-1.314;2023-06-14T04:44:06;91;89;
36453;PMS5003;22478;51.740;-1.314;2023-06-14T04:46:33;79;78;
36453;PMS5003;22478;51.740;-1.314;2023-06-14T04:49:00;71;70;
36453;PMS5003;22478;51.740;-1.314;2023-06-14T04:51:28;71;69;
36453;PMS5003;22478;51.740;-1.314;2023-06-14T04:53:55;74;74;
36453;PMS5003;22478;51.740;-1.314;2023-06-14T04:56:23;67;63;
36453;PMS5003;22478;51.740;-1.314;2023-06-14T04:58:50;73;69;
36453;PMS5003;22478;51.740;-1.314;2023-06-14T05:01:18;64;61;
36453;PMS5003;22478;51.740;-1.314;2023-06-14T05:03:45;66;64;
36453;PMS5003;22478;51.740;-1.314;2023-06-14T05:06:12;73;71;
36453;PMS5003;22478;51.740;-1.314;2023-06-14T05:08:39;65;60;
36453;PMS5003;22478;51.740;-1.314;2023-06-14T05:11:07;65;63;
36453;PMS5003;22478;51.740;-1.314;2023-06-14T05:13:35;76;74;
36453;PMS5003;22478;51.740;-1.314;2023-06-14T05:16:03;70;68;
36453;PMS5003;22478;51.740;-1.314;2023-06-14T05:18:30;69;69;
36453;PMS5003;22478;51.740;-1.314;2023-06-14T05:20:57;72;70;
36453;PMS5003;22478;51.740;-1.314;2023-06-14T05:23:25;80;78;
36453;PMS5003;22478;51.740;-1.314;2023-06-14T05:25:52;67;66;
36453;PMS5003;22478;51.740;-1.314;2023-06-14T05:28:20;64;58;
36453;PMS5003;22478;51.740;-1.314;2023-06-14T05:30:47;70;67;
36453;PMS5003;22478;51.740;-1.314;2023-06-14T05:33:14;67;65;
36453;PMS5003;22478;51.740;-1.314;2023-06-14T05:35:42;57;54;
36453;PMS5003;22478;51.740;-1.314;2023-06-14T05:38:09;47;44;
36453;PMS5003;22478;51.740;-1.314;2023-06-14T05:40:36;44;43;
36453;PMS5003;22478;51.740;-1.314;2023-06-14T05:43:03;54;53;
36453;PMS5003;22478;51.740;-1.314;2023-06-14T05:45:30;59;58;
36453;PMS5003;22478;51.740;-1.314;2023-06-14T05:47:58;61;58;
36453;PMS5003;22478;51.740;-1.314;2023-06-14T05:50:25;52;51;
36453;PMS5003;22478;51.740;-1.314;2023-06-14T05:52:53;35;32;
36453;PMS5003;22478;51.740;-1.314;2023-06-14T05:55:20;18;15;
36453;PMS5003;22478;51.740;-1.314;2023-06-14T05:57:47;15;15;
36453;PMS5003;22478;51.740;-1.314;2023-06-14T06:00:15;18;18;
36453;PMS5003;22478;51.740;-1.314;2023-06-14T06:02:43;40;32;
36453;PMS5003;22478;51.740;-1.314;2023-06-14T06:05:16;17;17;
36453;PMS5003;22478;51.740;-1.314;2023-06-14T06:07:44;14;14;
36453;PMS5003;22478;51.740;-1.314;2023-06-14T06:10:11;15;14;
36453;PMS5003;22478;51.740;-1.314;2023-06-14T06:12:38;14;13;
36453;PMS5003;22478;51.740;-1.314;2023-06-14T06:15:06;16;13;
36453;PMS5003;22478;51.740;-1.314;2023-06-14T06:17:33;9;8;
36453;PMS5003;22478;51.740;-1.314;2023-06-14T06:20:06;11;10;
36453;PMS5003;22478;51.740;-1.314;2023-06-14T06:22:34;13;10;
36453;PMS5003;22478;51.740;-1.314;2023-06-14T06:25:00;12;12;
36453;PMS5003;22478;51.740;-1.314;2023-06-14T06:27:28;13;10;
36453;PMS5003;22478;51.740;-1.314;2023-06-14T06:29:55;14;13;
36453;PMS5003;22478;51.740;-1.314;2023-06-14T06:32:23;15;11;
36453;PMS5003;22478;51.740;-1.314;2023-06-14T06:34:50;13;10;
36453;PMS5003;22478;51.740;-1.314;2023-06-14T06:37:17;12;11;
36453;PMS5003;22478;51.740;-1.314;2023-06-14T06:39:44;13;12;
36453;PMS5003;22478;51.740;-1.314;2023-06-14T06:42:12;15;13;
36453;PMS5003;22478;51.740;-1.314;2023-06-14T06:44:39;10;10;
36453;PMS5003;22478;51.740;-1.314;2023-06-14T06:47:06;13;10;
36453;PMS5003;22478;51.740;-1.314;2023-06-14T06:49:38;11;10;
36453;PMS5003;22478;51.740;-1.314;2023-06-14T06:52:06;13;13;
36453;PMS5003;22478;51.740;-1.314;2023-06-14T06:54:34;12;11;
36453;PMS5003;22478;51.740;-1.314;2023-06-14T06:57:01;11;8;
36453;PMS5003;22478;51.740;-1.314;2023-06-14T06:59:29;13;13;
36453;PMS5003;22478;51.740;-1.314;2023-06-14T07:01:56;10;9;
36453;PMS5003;22478;51.740;-1.314;2023-06-14T07:04:28;9;9;
36453;PMS5003;22478;51.740;-1.314;2023-06-14T07:06:55;11;8;
36453;PMS5003;22478;51.740;-1.314;2023-06-14T07:09:22;12;9;
36453;PMS5003;22478;51.740;-1.314;2023-06-14T07:11:49;10;10;
36453;PMS5003;22478;51.740;-1.314;2023-06-14T07:14:17;8;7;
36453;PMS5003;22478;51.740;-1.314;2023-06-14T07:16:45;6;6;
36453;PMS5003;22478;51.740;-1.314;2023-06-14T07:19:12;9;9;
36453;PMS5003;22478;51.740;-1.314;2023-06-14T07:21:39;12;10;
36453;PMS5003;22478;51.740;-1.314;2023-06-14T07:24:06;8;8;
36453;PMS5003;22478;51.740;-1.314;2023-06-14T07:26:34;8;7;
36453;PMS5003;22478;51.740;-1.314;2023-06-14T07:29:02;7;7;
36453;PMS5003;22478;51.740;-1.314;2023-06-14T07:31:34;10;8;
36453;PMS5003;22478;51.740;-1.314;2023-06-14T07:34:01;7;7;
36453;PMS5003;22478;51.740;-1.314;2023-06-14T07:36:28;15;11;
36453;PMS5003;22478;51.740;-1.314;2023-06-14T07:38:55;12;8;
36453;PMS5003;22478;51.740;-1.314;2023-06-14T07:41:22;10;8;
36453;PMS5003;22478;51.740;-1.314;2023-06-14T07:43:50;10;6;
36453;PMS5003;22478;51.740;-1.314;2023-06-14T07:46:22;8;8;
36453;PMS5003;22478;51.740;-1.314;2023-06-14T07:48:54;10;9;
36453;PMS5003;22478;51.740;-1.314;2023-06-14T07:51:21;10;9;
36453;PMS5003;22478;51.740;-1.314;2023-06-14T07:53:49;8;7;
36453;PMS5003;22478;51.740;-1.314;2023-06-14T07:56:15;9;7;
36453;PMS5003;22478;51.740;-1.314;2023-06-14T07:58:42;12;10;
36453;PMS5003;22478;51.740;-1.314;2023-06-14T08:01:09;9;9;
36453;PMS5003;22478;51.740;-1.314;2023-06-14T08:03:41;11;8;
36453;PMS5003;22478;51.740;-1.314;2023-06-14T08:06:09;9;8;
36453;PMS5003;22478;51.740;-1.314;2023-06-14T08:08:36;9;7;
36453;PMS5003;22478;51.740;-1.314;2023-06-14T08:11:03;9;6;
36453;PMS5003;22478;51.740;-1.314;2023-06-14T08:13:31;9;8;
36453;PMS5003;22478;51.740;-1.314;2023-06-14T08:15:58;9;8;
36453;PMS5003;22478;51.740;-1.314;2023-06-14T08:18:25;8;7;
36453;PMS5003;22478;51.740;-1.314;2023-06-14T08:20:52;7;7;
36453;PMS5003;22478;51.740;-1.314;2023-06-14T08:23:19;5;5;
36453;PMS5003;22478;51.740;-1.314;2023-06-14T08:25:45;10;9;
36453;PMS5003;22478;51.740;-1.314;2023-06-14T08:28:13;8;6;
36453;PMS5003;22478;51.740;-1.314;2023-06-14T08:30:40;9;7;
36453;PMS5003;22478;51.740;-1.314;2023-06-14T08:33:08;8;8;
36453;PMS5003;22478;51.740;-1.314;2023-06-14T08:35:35;10;9;
36453;PMS5003;22478;51.740;-1.314;2023-06-14T08:38:02;8;8;
36453;PMS5003;22478;51.740;-1.314;2023-06-14T08:40:30;6;6;
36453;PMS5003;22478;51.740;-1.314;2023-06-14T08:42:58;5;5;
36453;PMS5003;22478;51.740;-1.314;2023-06-14T08:45:25;8;8;
36453;PMS5003;22478;51.740;-1.314;2023-06-14T08:47:52;10;7;
36453;PMS5003;22478;51.740;-1.314;2023-06-14T08:50:20;8;6;
36453;PMS5003;22478;51.740;-1.314;2023-06-14T08:52:48;8;7;
36453;PMS5003;22478;51.740;-1.314;2023-06-14T08:55:21;10;6;
36453;PMS5003;22478;51.740;-1.314;2023-06-14T08:57:50;7;7;
36453;PMS5003;22478;51.740;-1.314;2023-06-14T09:00:18;10;7;
36453;PMS5003;22478;51.740;-1.314;2023-06-14T09:02:46;11;9;
36453;PMS5003;22478;51.740;-1.314;2023-06-14T09:05:14;8;8;
36453;PMS5003;22478;51.740;-1.314;2023-06-14T09:07:41;8;7;
36453;PMS5003;22478;51.740;-1.314;2023-06-14T09:10:10;8;8;
36453;PMS5003;22478;51.740;-1.314;2023-06-14T09:12:38;8;7;
36453;PMS5003;22478;51.740;-1.314;2023-06-14T09:15:06;8;7;
36453;PMS5003;22478;51.740;-1.314;2023-06-14T09:17:34;9;8;
36453;PMS5003;22478;51.740;-1.314;2023-06-14T09:20:01;8;8;
36453;PMS5003;22478;51.740;-1.314;2023-06-14T09:22:29;10;7;
36453;PMS5003;22478;51.740;-1.314;2023-06-14T09:24:56;5;5;
36453;PMS5003;22478;51.740;-1.314;2023-06-14T09:27:25;12;8;
36453;PMS5003;22478;51.740;-1.314;2023-06-14T09:29:52;9;9;
36453;PMS5003;22478;51.740;-1.314;2023-06-14T09:32:20;9;6;
36453;PMS5003;22478;51.740;-1.314;2023-06-14T09:34:48;12;8;
36453;PMS5003;22478;51.740;-1.314;2023-06-14T09:37:28;9;7;
36453;PMS5003;22478;51.740;-1.314;2023-06-14T09:39:55;8;8;
36453;PMS5003;22478;51.740;-1.314;2023-06-14T09:42:23;8;7;
36453;PMS5003;22478;51.740;-1.314;2023-06-14T09:44:50;8;6;
36453;PMS5003;22478;51.740;-1.314;2023-06-14T09:47:18;8;7;
36453;PMS5003;22478;51.740;-1.314;2023-06-14T09:49:45;7;7;
36453;PMS5003;22478;51.740;-1.314;2023-06-14T09:52:14;4;4;
36453;PMS5003;22478;51.740;-1.314;2023-06-14T09:54:43;8;8;
36453;PMS5003;22478;51.740;-1.314;2023-06-14T09:57:11;8;7;
36453;PMS5003;22478;51.740;-1.314;2023-06-14T09:59:45;10;9;
36453;PMS5003;22478;51.740;-1.314;2023-06-14T10:02:18;9;7;
36453;PMS5003;22478;51.740;-1.314;2023-06-14T10:04:53;8;7;
36453;PMS5003;22478;51.740;-1.314;2023-06-14T10:07:24;11;10;
36453;PMS5003;22478;51.740;-1.314;2023-06-14T10:09:54;7;7;
36453;PMS5003;22478;51.740;-1.314;2023-06-14T10:12:21;10;8;
36453;PMS5003;22478;51.740;-1.314;2023-06-14T10:14:49;10;6;
36453;PMS5003;22478;51.740;-1.314;2023-06-14T10:17:20;10;10;
36453;PMS5003;22478;51.740;-1.314;2023-06-14T10:20:10;11;8;
36453;PMS5003;22478;51.740;-1.314;2023-06-14T10:22:47;10;8;
36453;PMS5003;22478;51.740;-1.314;2023-06-14T10:25:27;11;9;
36453;PMS5003;22478;51.740;-1.314;2023-06-14T10:28:28;11;9;
36453;PMS5003;22478;51.740;-1.314;2023-06-14T10:31:03;8;8;
36453;PMS5003;22478;51.740;-1.314;2023-06-14T10:33:39;5;5;
36453;PMS5003;22478;51.740;-1.314;2023-06-14T10:36:30;10;8;
36453;PMS5003;22478;51.740;-1.314;2023-06-14T10:38:58;8;8;
36453;PMS5003;22478;51.740;-1.314;2023-06-14T10:41:28;12;10;
36453;PMS5003;22478;51.740;-1.314;2023-06-14T10:45:00;10;10;
36453;PMS5003;22478;51.740;-1.314;2023-06-14T10:47:28;8;7;
36453;PMS5003;22478;51.740;-1.314;2023-06-14T10:49:58;10;9;
36453;PMS5003;22478;51.740;-1.314;2023-06-14T10:52:32;7;7;
36453;PMS5003;22478;51.740;-1.314;2023-06-14T10:55:01;9;8;
36453;PMS5003;22478;51.740;-1.314;2023-06-14T10:57:29;9;9;
36453;PMS5003;22478;51.740;-1.314;2023-06-14T10:59:57;10;7;
36453;PMS5003;22478;51.740;-1.314;2023-06-14T11:02:37;7;7;
36453;PMS5003;22478;51.740;-1.314;2023-06-14T11:05:20;8;8;
36453;PMS5003;22478;51.740;-1.314;2023-06-14T11:07:55;13;11;
36453;PMS5003;22478;51.740;-1.314;2023-06-14T11:10:44;9;9;
36453;PMS5003;22478;51.740;-1.314;2023-06-14T11:13:11;12;10;
36453;PMS5003;22478;51.740;-1.314;2023-06-14T11:15:45;11;9;
36453;PMS5003;22478;51.740;-1.314;2023-06-14T11:18:13;12;12;
36453;PMS5003;22478;51.740;-1.314;2023-06-14T11:20:42;9;9;
36453;PMS5003;22478;51.740;-1.314;2023-06-14T11:23:09;13;11;
36453;PMS5003;22478;51.740;-1.314;2023-06-14T11:25:36;10;10;
36453;PMS5003;22478;51.740;-1.314;2023-06-14T11:28:04;8;8;
36453;PMS5003;22478;51.740;-1.314;2023-06-14T11:30:31;13;9;
36453;PMS5003;22478;51.740;-1.314;2023-06-14T11:32:58;12;10;
36453;PMS5003;22478;51.740;-1.314;2023-06-14T11:35:26;12;11;
36453;PMS5003;22478;51.740;-1.314;2023-06-14T11:37:53;9;8;
36453;PMS5003;22478;51.740;-1.314;2023-06-14T11:40:22;15;12;
36453;PMS5003;22478;51.740;-1.314;2023-06-14T11:42:54;10;10;
36453;PMS5003;22478;51.740;-1.314;2023-06-14T11:45:25;12;12;
36453;PMS5003;22478;51.740;-1.314;2023-06-14T11:47:54;10;10;
36453;PMS5003;22478;51.740;-1.314;2023-06-14T11:50:21;9;9;
36453;PMS5003;22478;51.740;-1.314;2023-06-14T11:52:52;10;10;
36453;PMS5003;22478;51.740;-1.314;2023-06-14T11:55:19;12;12;
36453;PMS5003;22478;51.740;-1.314;2023-06-14T11:55:20;12;12;
36453;PMS5003;22478;51.740;-1.314;2023-06-14T11:57:49;10;10;
36453;PMS5003;22478;51.740;-1.314;2023-06-14T12:00:17;12;10;
36453;PMS5003;22478;51.740;-1.314;2023-06-14T12:02:52;11;10;
36453;PMS5003;22478;51.740;-1.314;2023-06-14T12:05:20;13;11;
36453;PMS5003;22478;51.740;-1.314;2023-06-14T12:07:48;14;12;
36453;PMS5003;22478;51.740;-1.314;2023-06-14T12:10:16;11;11;
36453;PMS5003;22478;51.740;-1.314;2023-06-14T12:12:43;15;13;
36453;PMS5003;22478;51.740;-1.314;2023-06-14T12:15:10;13;12;
36453;PMS5003;22478;51.740;-1.314;2023-06-14T12:17:38;13;11;
36453;PMS5003;22478;51.740;-1.314;2023-06-14T12:20:07;14;11;
36453;PMS5003;22478;51.740;-1.314;2023-06-14T12:22:35;11;10;
36453;PMS5003;22478;51.740;-1.314;2023-06-14T12:25:03;8;8;
36453;PMS5003;22478;51.740;-1.314;2023-06-14T12:27:31;9;9;
36453;PMS5003;22478;51.740;-1.314;2023-06-14T12:29:59;15;13;
36453;PMS5003;22478;51.740;-1.314;2023-06-14T12:32:27;13;11;
36453;PMS5003;22478;51.740;-1.314;2023-06-14T12:34:54;13;10;
36453;PMS5003;22478;51.740;-1.314;2023-06-14T12:37:22;15;13;
36453;PMS5003;22478;51.740;-1.314;2023-06-14T12:39:49;11;11;
36453;PMS5003;22478;51.740;-1.314;2023-06-14T12:42:17;11;11;
36453;PMS5003;22478;51.740;-1.314;2023-06-14T12:44:44;14;14;
36453;PMS5003;22478;51.740;-1.314;2023-06-14T12:47:11;14;13;
36453;PMS5003;22478;51.740;-1.314;2023-06-14T12:49:39;15;15;
36453;PMS5003;22478;51.740;-1.314;2023-06-14T12:52:07;15;13;
36453;PMS5003;22478;51.740;-1.314;2023-06-14T12:54:35;14;13;
36453;PMS5003;22478;51.740;-1.314;2023-06-14T12:57:02;12;12;
36453;PMS5003;22478;51.740;-1.314;2023-06-14T12:59:29;16;14;
36453;PMS5003;22478;51.740;-1.314;2023-06-14T13:01:57;13;12;
36453;PMS5003;22478;51.740;-1.314;2023-06-14T13:04:24;15;14;
36453;PMS5003;22478;51.740;-1.314;2023-06-14T13:06:52;10;10;
36453;PMS5003;22478;51.740;-1.314;2023-06-14T13:09:19;16;16;
36453;PMS5003;22478;51.740;-1.314;2023-06-14T13:11:47;14;14;
36453;PMS5003;22478;51.740;-1.314;2023-06-14T13:14:14;14;11;
36453;PMS5003;22478;51.740;-1.314;2023-06-14T13:16:41;15;15;
36453;PMS5003;22478;51.740;-1.314;2023-06-14T13:19:09;15;13;
36453;PMS5003;22478;51.740;-1.314;2023-06-14T13:21:36;15;15;
36453;PMS5003;22478;51.740;-1.314;2023-06-14T13:24:04;14;12;
36453;PMS5003;22478;51.740;-1.314;2023-06-14T13:26:32;17;15;
36453;PMS5003;22478;51.740;-1.314;2023-06-14T13:29:00;17;13;
36453;PMS5003;22478;51.740;-1.314;2023-06-14T13:31:28;13;12;
36453;PMS5003;22478;51.740;-1.314;2023-06-14T13:33:56;14;14;
36453;PMS5003;22478;51.740;-1.314;2023-06-14T13:36:23;14;14;
36453;PMS5003;22478;51.740;-1.314;2023-06-14T13:38:55;14;13;
36453;PMS5003;22478;51.740;-1.314;2023-06-14T13:41:22;15;15;
36453;PMS5003;22478;51.740;-1.314;2023-06-14T13:43:50;17;15;
36453;PMS5003;22478;51.740;-1.314;2023-06-14T13:46:18;14;12;
36453;PMS5003;22478;51.740;-1.314;2023-06-14T13:48:45;14;14;
36453;PMS5003;22478;51.740;-1.314;2023-06-14T13:51:13;18;16;
36453;PMS5003;22478;51.740;-1.314;2023-06-14T13:53:40;18;16;
36453;PMS5003;22478;51.740;-1.314;2023-06-14T13:56:07;15;15;
36453;PMS5003;22478;51.740;-1.314;2023-06-14T13:58:38;13;13;
36453;PMS5003;22478;51.740;-1.314;2023-06-14T14:01:07;14;14;
36453;PMS5003;22478;51.740;-1.314;2023-06-14T14:03:35;14;14;
36453;PMS5003;22478;51.740;-1.314;2023-06-14T14:06:03;18;15;
36453;PMS5003;22478;51.740;-1.314;2023-06-14T14:08:30;14;14;
36453;PMS5003;22478;51.740;-1.314;2023-06-14T14:10:57;15;15;
36453;PMS5003;22478;51.740;-1.314;2023-06-14T14:13:25;16;13;
36453;PMS5003;22478;51.740;-1.314;2023-06-14T14:15:51;19;16;
36453;PMS5003;22478;51.740;-1.314;2023-06-14T14:18:19;14;14;
36453;PMS5003;22478;51.740;-1.314;2023-06-14T14:20:47;14;12;
36453;PMS5003;22478;51.740;-1.314;2023-06-14T14:23:19;14;13;
36453;PMS5003;22478;51.740;-1.314;2023-06-14T14:25:46;16;15;
36453;PMS5003;22478;51.740;-1.314;2023-06-14T14:28:14;15;14;
36453;PMS5003;22478;51.740;-1.314;2023-06-14T14:30:42;17;17;
36453;PMS5003;22478;51.740;-1.314;2023-06-14T14:33:09;15;14;
36453;PMS5003;22478;51.740;-1.314;2023-06-14T14:35:37;13;12;
36453;PMS5003;22478;51.740;-1.314;2023-06-14T14:38:04;18;16;
36453;PMS5003;22478;51.740;-1.314;2023-06-14T14:40:30;15;15;
36453;PMS5003;22478;51.740;-1.314;2023-06-14T14:42:57;19;17;
36453;PMS5003;22478;51.740;-1.314;2023-06-14T14:45:29;15;14;
36453;PMS5003;22478;51.740;-1.314;2023-06-14T14:47:56;15;15;
36453;PMS5003;22478;51.740;-1.314;2023-06-14T14:50:24;15;14;
36453;PMS5003;22478;51.740;-1.314;2023-06-14T14:52:51;18;17;
36453;PMS5003;22478;51.740;-1.314;2023-06-14T14:55:19;20;16;
36453;PMS5003;22478;51.740;-1.314;2023-06-14T14:57:46;16;15;
36453;PMS5003;22478;51.740;-1.314;2023-06-14T15:00:13;14;14;
36453;PMS5003;22478;51.740;-1.314;2023-06-14T15:02:46;15;15;
36453;PMS5003;22478;51.740;-1.314;2023-06-14T15:05:13;18;16;
36453;PMS5003;22478;51.740;-1.314;2023-06-14T15:07:41;17;15;
36453;PMS5003;22478;51.740;-1.314;2023-06-14T15:10:08;19;16;
36453;PMS5003;22478;51.740;-1.314;2023-06-14T15:12:35;21;17;
36453;PMS5003;22478;51.740;-1.314;2023-06-14T15:15:03;16;16;
36453;PMS5003;22478;51.740;-1.314;2023-06-14T15:17:30;14;14;
36453;PMS5003;22478;51.740;-1.314;2023-06-14T15:19:58;15;15;
36453;PMS5003;22478;51.740;-1.314;2023-06-14T15:22:25;16;15;
36453;PMS5003;22478;51.740;-1.314;2023-06-14T15:24:57;21;18;
36453;PMS5003;22478;51.740;-1.314;2023-06-14T15:27:25;19;17;
36453;PMS5003;22478;51.740;-1.314;2023-06-14T15:29:52;13;12;
36453;PMS5003;22478;51.740;-1.314;2023-06-14T15:32:20;21;18;
36453;PMS5003;22478;51.740;-1.314;2023-06-14T15:34:47;17;17;
36453;PMS5003;22478;51.740;-1.314;2023-06-14T15:37:15;14;14;
36453;PMS5003;22478;51.740;-1.314;2023-06-14T15:39:43;18;15;
36453;PMS5003;22478;51.740;-1.314;2023-06-14T15:42:10;15;14;
36453;PMS5003;22478;51.740;-1.314;2023-06-14T15:44:37;18;16;
36453;PMS5003;22478;51.740;-1.314;2023-06-14T15:47:04;13;13;
36453;PMS5003;22478;51.740;-1.314;2023-06-14T15:49:32;19;17;
36453;PMS5003;22478;51.740;-1.314;2023-06-14T15:51:59;13;13;
36453;PMS5003;22478;51.740;-1.314;2023-06-14T15:54:31;22;22;
36453;PMS5003;22478;51.740;-1.314;2023-06-14T15:56:59;17;14;
36453;PMS5003;22478;51.740;-1.314;2023-06-14T15:59:27;19;19;
36453;PMS5003;22478;51.740;-1.314;2023-06-14T16:01:54;17;16;
36453;PMS5003;22478;51.740;-1.314;2023-06-14T16:04:21;16;16;
36453;PMS5003;22478;51.740;-1.314;2023-06-14T16:06:48;16;14;
36453;PMS5003;22478;51.740;-1.314;2023-06-14T16:09:16;18;18;
36453;PMS5003;22478;51.740;-1.314;2023-06-14T16:11:43;14;13;
36453;PMS5003;22478;51.740;-1.314;2023-06-14T16:14:11;18;17;